Time;durP1;ratioP1;P1;durP2;ratioP2;P2;SDS_P1;SDS_P2;PMS_P1;PMS_P2;Temp;Humidity;BMP_temperature;BMP_pressure;BME280_temperature;BME280_humidity;BME280_pressure;Samples;Min_cycle;Max_cycle;Signal;HPM_P1;HPM_P2
2023/05/04 00:01:45;;;;;;;3.65;2.80;;;14.00;99.90;;;;;;5033842;28;20029;-46
2023/05/04 00:04:12;;;;;;;6.18;3.10;;;14.00;99.90;;;;;;5033820;28;20104;-45
2023/05/04 00:06:38;;;;;;;4.00;2.97;;;14.00;99.90;;;;;;5033322;28;20029;-45
2023/05/04 00:09:05;;;;;;;8.93;3.15;;;13.90;99.90;;;;;;5033965;28;20025;-45
2023/05/04 00:11:31;;;;;;;4.53;2.95;;;13.90;99.90;;;;;;5034047;28;20473;-46
2023/05/04 00:13:57;;;;;;;4.82;2.78;;;14.00;99.90;;;;;;5033742;28;20036;-45
2023/05/04 00:16:22;;;;;;;4.93;3.05;;;13.90;99.90;;;;;;5033237;28;20564;-44
2023/05/04 00:18:48;;;;;;;4.47;2.83;;;13.90;99.90;;;;;;5034106;28;20112;-44
2023/05/04 00:21:13;;;;;;;4.72;2.85;;;13.90;99.90;;;;;;5033753;28;20036;-48
2023/05/04 00:23:39;;;;;;;6.22;2.85;;;13.90;99.90;;;;;;5033469;28;20079;-48
2023/05/04 00:26:05;;;;;;;4.28;2.70;;;13.90;99.90;;;;;;5032891;28;20096;-44
2023/05/04 00:28:30;;;;;;;3.08;2.58;;;13.90;99.90;;;;;;5033348;28;20129;-47
2023/05/04 00:30:56;;;;;;;4.85;2.90;;;13.90;99.90;;;;;;5033295;28;20497;-48
2023/05/04 00:33:21;;;;;;;4.93;3.15;;;13.90;99.90;;;;;;5033182;28;20391;-45
2023/05/04 00:35:47;;;;;;;5.43;3.08;;;13.90;99.90;;;;;;5033323;28;20071;-44
2023/05/04 00:38:15;;;;;;;3.83;2.78;;;13.90;99.90;;;;;;5032466;28;20493;-44
2023/05/04 00:40:41;;;;;;;6.93;3.10;;;13.90;99.90;;;;;;5033531;28;20044;-44
2023/05/04 00:43:07;;;;;;;4.63;3.15;;;13.90;99.90;;;;;;5033396;28;20030;-43
2023/05/04 00:45:33;;;;;;;5.70;2.95;;;13.90;99.90;;;;;;5033156;28;20056;-43
2023/05/04 00:47:59;;;;;;;4.25;2.65;;;13.90;99.90;;;;;;5032698;28;20056;-44
2023/05/04 00:50:26;;;;;;;5.18;3.00;;;13.90;99.90;;;;;;5032113;28;20025;-47
2023/05/04 00:52:54;;;;;;;5.20;2.63;;;13.80;99.90;;;;;;5033230;28;20033;-45
2023/05/04 00:55:21;;;;;;;4.95;2.92;;;13.80;99.90;;;;;;5033012;28;20025;-49
2023/05/04 00:57:48;;;;;;;4.32;3.13;;;13.80;99.90;;;;;;5032378;28;20022;-45
2023/05/04 01:00:14;;;;;;;4.57;3.30;;;13.80;99.90;;;;;;5032649;28;20026;-48
2023/05/04 01:02:40;;;;;;;5.70;3.60;;;13.80;99.90;;;;;;5032790;28;20033;-44
2023/05/04 01:05:07;;;;;;;8.00;3.35;;;13.80;99.90;;;;;;5032457;28;20026;-46
2023/05/04 01:08:02;;;;;;;4.82;3.25;;;13.80;99.90;;;;;;5032294;28;20128;-44
2023/05/04 01:10:31;;;;;;;;;;;13.80;99.90;;;;;;5033078;28;20108;-47
2023/05/04 01:13:11;;;;;;;3.67;2.88;;;13.80;99.90;;;;;;5032792;28;19912;-44
2023/05/04 01:15:38;;;;;;;8.73;3.33;;;13.80;99.90;;;;;;5032455;28;20068;-45
2023/05/04 01:18:05;;;;;;;4.78;2.95;;;13.80;99.90;;;;;;5032381;28;20056;-44
2023/05/04 01:20:31;;;;;;;4.80;3.22;;;13.70;99.90;;;;;;5032723;28;20494;-44
2023/05/04 01:22:56;;;;;;;5.05;2.88;;;13.70;99.90;;;;;;5032511;28;20036;-44
2023/05/04 01:25:29;;;;;;;5.38;3.30;;;13.80;99.90;;;;;;5032561;28;20044;-46
2023/05/04 01:28:07;;;;;;;5.05;3.15;;;13.70;99.90;;;;;;5032446;28;20109;-44
2023/05/04 01:30:42;;;;;;;6.22;3.53;;;13.70;99.90;;;;;;5032455;28;20111;-44
2023/05/04 01:33:08;;;;;;;5.28;3.22;;;13.70;99.90;;;;;;5032483;28;20507;-43
2023/05/04 01:35:34;;;;;;;4.47;3.42;;;13.70;99.90;;;;;;5031389;28;20122;-45
2023/05/04 01:38:01;;;;;;;8.73;3.33;;;13.70;99.90;;;;;;5031042;28;20033;-44
2023/05/04 01:40:26;;;;;;;9.30;3.85;;;13.70;99.90;;;;;;5031316;28;20038;-44
2023/05/04 01:42:52;;;;;;;5.40;3.50;;;13.70;99.90;;;;;;5031194;28;20029;-45
2023/05/04 01:45:18;;;;;;;5.22;3.45;;;13.70;99.90;;;;;;5031113;28;20030;-43
2023/05/04 01:47:44;;;;;;;7.68;3.55;;;13.70;99.90;;;;;;5030719;28;20036;-44
2023/05/04 01:50:10;;;;;;;4.88;3.13;;;13.70;99.90;;;;;;5031099;28;20021;-44
2023/05/04 01:52:35;;;;;;;8.15;3.22;;;13.70;99.90;;;;;;5031050;28;20021;-45
2023/05/04 01:55:01;;;;;;;4.88;3.28;;;13.70;99.90;;;;;;5031385;28;20033;-44
2023/05/04 01:57:27;;;;;;;6.75;3.45;;;13.60;99.90;;;;;;5030564;28;20460;-44
2023/05/04 01:59:54;;;;;;;4.80;3.00;;;13.60;99.90;;;;;;5031034;28;20029;-45
2023/05/04 02:02:20;;;;;;;5.20;3.30;;;13.60;99.90;;;;;;5030684;28;20112;-44
2023/05/04 02:04:46;;;;;;;5.03;3.10;;;13.60;99.90;;;;;;5030924;28;20096;-45
2023/05/04 02:07:12;;;;;;;3.80;2.80;;;13.60;99.90;;;;;;5030412;28;20087;-44
2023/05/04 02:09:38;;;;;;;5.95;3.00;;;13.60;99.90;;;;;;5030946;28;20057;-45
2023/05/04 02:12:04;;;;;;;4.45;2.92;;;13.60;99.90;;;;;;5030908;28;20057;-44
2023/05/04 02:14:29;;;;;;;6.28;3.13;;;13.60;99.90;;;;;;5031341;28;20030;-44
2023/05/04 02:16:55;;;;;;;3.80;2.50;;;13.60;99.90;;;;;;5030273;28;20147;-45
2023/05/04 02:19:20;;;;;;;4.93;3.20;;;13.60;99.90;;;;;;5030800;28;20034;-45
2023/05/04 02:21:47;;;;;;;5.07;3.03;;;13.60;99.90;;;;;;5030820;28;20025;-44
2023/05/04 02:24:12;;;;;;;4.05;2.35;;;13.60;99.90;;;;;;5030756;28;20067;-46
2023/05/04 02:26:38;;;;;;;5.10;2.97;;;13.60;99.90;;;;;;5030308;28;20411;-44
2023/05/04 02:29:04;;;;;;;5.75;3.10;;;13.60;99.90;;;;;;5030540;28;20104;-44
2023/05/04 02:31:33;;;;;;;6.20;3.10;;;13.50;99.90;;;;;;5030653;28;20025;-44
2023/05/04 02:34:00;;;;;;;5.53;3.13;;;13.50;99.90;;;;;;5030544;28;20029;-44
2023/05/04 02:36:25;;;;;;;6.63;3.38;;;13.50;99.90;;;;;;5030213;28;20087;-44
2023/05/04 02:38:51;;;;;;;3.63;3.08;;;13.50;99.90;;;;;;5030715;28;20025;-45
2023/05/04 02:41:16;;;;;;;7.50;3.50;;;13.50;99.90;;;;;;5030697;28;20390;-43
2023/05/04 02:43:42;;;;;;;3.40;2.83;;;13.50;99.90;;;;;;5030477;28;20068;-44
2023/05/04 02:46:08;;;;;;;3.35;2.85;;;13.50;99.90;;;;;;5030024;28;20498;-44
2023/05/04 02:48:33;;;;;;;4.75;2.83;;;13.50;99.90;;;;;;5030577;28;20033;-45
2023/05/04 02:50:59;;;;;;;6.05;2.90;;;13.50;99.90;;;;;;5030584;28;20026;-42
2023/05/04 02:53:25;;;;;;;5.30;2.80;;;13.50;99.90;;;;;;5030480;28;20107;-45
2023/05/04 02:55:50;;;;;;;5.55;3.03;;;13.40;99.90;;;;;;5030209;28;20017;-44
2023/05/04 02:58:16;;;;;;;4.80;3.08;;;13.40;99.90;;;;;;5030360;28;20371;-45
2023/05/04 03:00:41;;;;;;;4.88;3.30;;;13.40;99.90;;;;;;5030461;28;20029;-43
2023/05/04 03:03:07;;;;;;;4.13;2.92;;;13.40;99.90;;;;;;5030439;28;20114;-43
2023/05/04 03:05:33;;;;;;;6.03;3.05;;;13.40;99.90;;;;;;5030429;28;20033;-44
2023/05/04 03:07:59;;;;;;;4.25;3.08;;;13.30;99.90;;;;;;5029975;28;20017;-45
2023/05/04 03:10:24;;;;;;;4.60;3.05;;;13.30;99.90;;;;;;5030461;28;20037;-45
2023/05/04 03:12:50;;;;;;;7.60;3.72;;;13.20;99.90;;;;;;5031031;28;20030;-44
2023/05/04 03:15:15;;;;;;;4.40;3.10;;;13.20;99.90;;;;;;5033984;28;20371;-44
2023/05/04 03:17:42;;;;;;;6.05;3.30;;;13.10;99.90;;;;;;5033315;28;20029;-43
2023/05/04 03:20:08;;;;;;;5.30;3.50;;;13.20;99.90;;;;;;5033941;28;20435;-44
2023/05/04 03:22:34;;;;;;;5.80;3.10;;;13.20;99.90;;;;;;5032484;28;20425;-43
2023/05/04 03:25:00;;;;;;;6.38;3.20;;;13.10;99.90;;;;;;5033790;28;20036;-44
2023/05/04 03:27:25;;;;;;;5.93;3.42;;;13.10;99.90;;;;;;5033723;28;20416;-45
2023/05/04 03:29:51;;;;;;;7.60;3.20;;;13.10;99.90;;;;;;5033584;28;20025;-45
2023/05/04 03:32:17;;;;;;;5.70;3.20;;;13.10;99.90;;;;;;5033660;28;20079;-45
2023/05/04 03:34:44;;;;;;;5.80;3.20;;;13.10;99.90;;;;;;5033511;28;20402;-43
2023/05/04 03:37:10;;;;;;;4.18;3.00;;;13.10;99.90;;;;;;5033092;28;20022;-44
2023/05/04 03:39:36;;;;;;;5.45;3.58;;;13.00;99.90;;;;;;5033681;28;20501;-44
2023/05/04 03:42:02;;;;;;;5.20;3.10;;;13.10;99.90;;;;;;5033430;28;20052;-44
2023/05/04 03:44:28;;;;;;;6.03;3.20;;;13.10;99.90;;;;;;5033377;28;20376;-45
2023/05/04 03:46:53;;;;;;;5.20;3.33;;;13.00;99.90;;;;;;5032802;28;20028;-47
2023/05/04 03:49:19;;;;;;;6.10;3.28;;;13.00;99.90;;;;;;5033420;28;20470;-43
2023/05/04 03:51:45;;;;;;;4.10;3.15;;;13.00;99.90;;;;;;5033441;28;20080;-44
2023/05/04 03:54:11;;;;;;;5.55;3.83;;;13.00;99.90;;;;;;5033202;28;20112;-45
2023/05/04 03:56:36;;;;;;;6.97;3.55;;;12.90;99.90;;;;;;5032736;28;20037;-43
2023/05/04 03:59:02;;;;;;;5.38;3.63;;;12.90;99.90;;;;;;5033157;28;20041;-45
2023/05/04 04:01:28;;;;;;;5.40;3.75;;;12.90;99.90;;;;;;5033123;28;20069;-45
2023/05/04 04:03:54;;;;;;;4.13;3.17;;;12.90;99.90;;;;;;5033097;28;20025;-43
2023/05/04 04:06:20;;;;;;;5.22;3.63;;;12.80;99.90;;;;;;5032464;28;20433;-45
2023/05/04 04:08:46;;;;;;;5.88;3.55;;;12.80;99.90;;;;;;5033088;28;20107;-43
2023/05/04 04:11:12;;;;;;;4.15;3.10;;;12.80;99.90;;;;;;5032948;28;20045;-46
2023/05/04 04:13:37;;;;;;;4.57;3.55;;;12.80;99.90;;;;;;5031779;28;20143;-44
2023/05/04 04:16:03;;;;;;;5.15;3.47;;;12.80;99.90;;;;;;5032430;28;20076;-45
2023/05/04 04:18:29;;;;;;;5.35;3.17;;;12.80;99.90;;;;;;5032833;28;20080;-46
2023/05/04 04:20:54;;;;;;;15.10;6.15;;;12.80;99.90;;;;;;5032838;28;20112;-44
2023/05/04 04:23:20;;;;;;;12.50;5.63;;;12.80;99.90;;;;;;5032925;28;20033;-44
2023/05/04 04:25:46;;;;;;;10.30;4.55;;;12.80;99.90;;;;;;5032425;28;20399;-43
2023/05/04 04:28:12;;;;;;;7.45;4.38;;;12.80;99.90;;;;;;5032447;28;20465;-43
2023/05/04 04:30:38;;;;;;;5.93;3.78;;;12.70;99.90;;;;;;5031320;28;20079;-44
2023/05/04 04:33:04;;;;;;;7.88;3.70;;;12.70;99.90;;;;;;5032577;28;20039;-44
2023/05/04 04:35:31;;;;;;;5.03;3.72;;;12.70;99.90;;;;;;5032503;28;20057;-45
2023/05/04 04:37:57;;;;;;;6.55;4.18;;;12.70;99.90;;;;;;5032073;28;20021;-45
2023/05/04 04:40:23;;;;;;;7.60;4.07;;;12.70;99.90;;;;;;5032311;28;20489;-44
2023/05/04 04:42:49;;;;;;;7.13;3.75;;;12.70;99.90;;;;;;5032271;28;20038;-43
2023/05/04 04:45:15;;;;;;;5.25;3.55;;;12.70;99.90;;;;;;5032295;28;20109;-42
2023/05/04 04:47:41;;;;;;;4.20;3.28;;;12.70;99.90;;;;;;5031872;28;20095;-44
2023/05/04 04:50:07;;;;;;;5.80;3.78;;;12.70;99.90;;;;;;5032188;28;20075;-45
2023/05/04 04:52:33;;;;;;;6.07;3.90;;;12.70;99.90;;;;;;5032052;28;20029;-44
2023/05/04 04:54:59;;;;;;;6.32;3.70;;;12.70;99.90;;;;;;5032639;28;20022;-44
2023/05/04 04:57:25;;;;;;;5.88;3.85;;;12.70;99.90;;;;;;5031840;28;20025;-43
2023/05/04 04:59:52;;;;;;;5.88;3.78;;;12.70;99.90;;;;;;5031942;28;20048;-45
2023/05/04 05:02:18;;;;;;;8.43;4.50;;;12.70;99.90;;;;;;5032000;28;20025;-43
2023/05/04 05:04:45;;;;;;;7.20;4.22;;;12.70;99.90;;;;;;5030633;28;20029;-43
2023/05/04 05:07:10;;;;;;;7.75;4.70;;;12.70;99.90;;;;;;5031748;28;20052;-47
2023/05/04 05:09:37;;;;;;;5.90;4.03;;;12.70;99.90;;;;;;5031824;28;20511;-45
2023/05/04 05:12:03;;;;;;;6.85;4.47;;;12.70;99.90;;;;;;5031794;28;20025;-44
2023/05/04 05:14:30;;;;;;;6.40;4.20;;;12.70;99.90;;;;;;5031582;28;20025;-46
2023/05/04 05:16:56;;;;;;;7.70;4.50;;;12.70;99.90;;;;;;5031240;28;20048;-43
2023/05/04 05:19:22;;;;;;;9.07;5.15;;;12.70;99.90;;;;;;5031658;28;20037;-44
2023/05/04 05:21:48;;;;;;;8.20;5.35;;;12.70;99.90;;;;;;5031702;28;20032;-45
2023/05/04 05:24:14;;;;;;;10.05;5.90;;;12.60;99.90;;;;;;5031431;28;20033;-45
2023/05/04 05:26:40;;;;;;;7.82;5.10;;;12.70;99.90;;;;;;5030906;28;20033;-44
2023/05/04 05:29:05;;;;;;;5.63;4.35;;;12.70;99.90;;;;;;5031441;28;20029;-44
2023/05/04 05:31:31;;;;;;;9.20;5.05;;;12.60;99.90;;;;;;5031446;28;20080;-44
2023/05/04 05:33:57;;;;;;;7.55;5.53;;;12.70;99.90;;;;;;5031632;28;20516;-44
2023/05/04 05:36:23;;;;;;;8.65;5.18;;;12.70;99.90;;;;;;5030460;28;20395;-44
2023/05/04 05:38:48;;;;;;;7.40;4.50;;;12.70;99.90;;;;;;5029946;28;20441;-45
2023/05/04 05:41:14;;;;;;;8.85;4.70;;;12.70;99.90;;;;;;5031286;28;20030;-45
2023/05/04 05:43:40;;;;;;;6.60;4.43;;;12.70;99.90;;;;;;5031129;28;20105;-47
2023/05/04 05:46:06;;;;;;;9.85;4.88;;;12.70;99.90;;;;;;5030654;28;20061;-44
2023/05/04 05:48:32;;;;;;;5.43;4.10;;;12.70;99.90;;;;;;5031327;28;20040;-43
2023/05/04 05:50:58;;;;;;;6.13;4.60;;;12.70;99.90;;;;;;5031211;28;20483;-43
2023/05/04 05:53:24;;;;;;;7.60;4.47;;;12.70;99.90;;;;;;5030853;28;20026;-47
2023/05/04 05:55:50;;;;;;;5.05;3.85;;;12.80;99.90;;;;;;5030595;28;20033;-44
2023/05/04 05:58:15;;;;;;;6.30;4.35;;;12.80;99.90;;;;;;5030962;28;20479;-43
2023/05/04 06:00:41;;;;;;;6.38;4.80;;;12.80;99.90;;;;;;5031116;28;20029;-43
2023/05/04 06:03:07;;;;;;;7.95;4.95;;;12.80;99.90;;;;;;5031012;28;20040;-47
2023/05/04 06:05:35;;;;;;;11.90;5.18;;;12.80;99.90;;;;;;5030721;28;20112;-42
2023/05/04 06:08:01;;;;;;;11.43;4.90;;;12.80;99.90;;;;;;5030502;28;20471;-45
2023/05/04 06:10:27;;;;;;;8.02;4.88;;;12.70;99.90;;;;;;5030891;28;20030;-44
2023/05/04 06:12:52;;;;;;;6.82;4.72;;;12.60;99.90;;;;;;5031046;28;20032;-43
2023/05/04 06:15:18;;;;;;;8.43;5.18;;;12.60;99.90;;;;;;5030891;28;20489;-44
2023/05/04 06:17:44;;;;;;;10.23;4.95;;;12.60;99.90;;;;;;5030516;28;20017;-44
2023/05/04 06:20:10;;;;;;;8.40;5.50;;;12.70;99.90;;;;;;5031267;28;20036;-45
2023/05/04 06:22:36;;;;;;;8.15;4.60;;;12.70;99.90;;;;;;5030636;28;20067;-44
2023/05/04 06:25:02;;;;;;;6.03;4.78;;;12.70;99.90;;;;;;5030721;28;20111;-44
2023/05/04 06:27:30;;;;;;;5.65;4.50;;;12.80;99.90;;;;;;5030269;28;20041;-45
2023/05/04 06:29:56;;;;;;;6.57;4.45;;;12.80;99.90;;;;;;5030688;28;20479;-45
2023/05/04 06:32:21;;;;;;;7.15;4.53;;;12.80;99.90;;;;;;5030694;28;20032;-44
2023/05/04 06:34:47;;;;;;;5.50;4.20;;;12.90;99.90;;;;;;5030614;28;20267;-43
2023/05/04 06:37:13;;;;;;;6.80;4.70;;;12.90;99.90;;;;;;5030025;28;20061;-44
2023/05/04 06:39:38;;;;;;;6.45;4.57;;;13.00;99.90;;;;;;5030669;28;20028;-44
2023/05/04 06:42:04;;;;;;;7.47;4.65;;;13.00;99.90;;;;;;5030564;28;20056;-43
2023/05/04 06:44:32;;;;;;;9.27;4.65;;;13.10;99.90;;;;;;5030587;28;20034;-45
2023/05/04 06:46:58;;;;;;;6.95;4.07;;;13.10;99.90;;;;;;5030025;28;20030;-45
2023/05/04 06:49:24;;;;;;;6.70;4.47;;;13.10;99.90;;;;;;5033851;28;20048;-44
2023/05/04 06:51:49;;;;;;;5.70;3.95;;;13.10;99.90;;;;;;5034278;28;20022;-44
2023/05/04 06:54:15;;;;;;;6.80;4.32;;;13.10;99.90;;;;;;5034261;28;20018;-44
2023/05/04 06:56:41;;;;;;;5.88;3.60;;;13.20;99.90;;;;;;5033815;28;20042;-44
2023/05/04 06:59:08;;;;;;;4.93;3.50;;;13.20;99.90;;;;;;5034354;28;20056;-45
2023/05/04 07:01:34;;;;;;;5.97;4.25;;;13.30;99.90;;;;;;5032949;28;20029;-45
2023/05/04 07:04:00;;;;;;;4.07;3.30;;;13.30;99.90;;;;;;5034163;28;20028;-44
2023/05/04 07:06:26;;;;;;;4.80;3.90;;;13.30;99.90;;;;;;5033341;28;20486;-44
2023/05/04 07:08:51;;;;;;;5.95;3.70;;;13.30;99.90;;;;;;5032832;28;20018;-44
2023/05/04 07:11:17;;;;;;;5.13;3.40;;;13.30;99.90;;;;;;5033970;28;20040;-44
2023/05/04 07:13:43;;;;;;;6.95;3.45;;;13.40;99.90;;;;;;5033977;28;20017;-44
2023/05/04 07:16:08;;;;;;;4.72;3.60;;;13.40;99.90;;;;;;5033428;28;20036;-43
2023/05/04 07:18:34;;;;;;;5.07;3.40;;;13.40;99.90;;;;;;5034425;28;20032;-45
2023/05/04 07:21:00;;;;;;;4.47;3.35;;;13.40;99.90;;;;;;5034254;28;20028;-44
2023/05/04 07:23:26;;;;;;;4.90;3.20;;;13.40;99.90;;;;;;5033763;28;20386;-46
2023/05/04 07:25:52;;;;;;;11.40;7.95;;;13.40;99.90;;;;;;5033241;28;20100;-44
2023/05/04 07:28:17;;;;;;;14.32;7.15;;;13.50;99.90;;;;;;5033567;28;20605;-43
2023/05/04 07:30:43;;;;;;;9.75;6.70;;;13.60;99.90;;;;;;5033801;28;20030;-43
2023/05/04 07:33:08;;;;;;;11.18;6.10;;;13.60;99.90;;;;;;5056718;22;20046;-40
2023/05/04 07:35:34;;;;;;;12.07;6.75;;;13.70;99.90;;;;;;5034125;28;20037;-41
2023/05/04 07:38:00;;;;;;;9.85;5.72;;;13.70;99.90;;;;;;5033221;28;20025;-41
2023/05/04 07:40:25;;;;;;;11.70;6.47;;;13.80;99.90;;;;;;5033671;28;20030;-41
2023/05/04 07:42:51;;;;;;;7.30;5.50;;;13.80;99.90;;;;;;5033461;28;20478;-41
2023/05/04 07:45:17;;;;;;;8.50;5.82;;;13.80;99.90;;;;;;5033384;28;20034;-41
2023/05/04 07:47:43;;;;;;;9.07;5.43;;;13.80;99.90;;;;;;5032806;28;20045;-41
2023/05/04 07:50:09;;;;;;;8.35;5.70;;;13.80;99.90;;;;;;5033405;28;20025;-41
2023/05/04 07:52:34;;;;;;;8.40;5.25;;;13.80;99.90;;;;;;5033359;28;20068;-41
2023/05/04 07:55:00;;;;;;;8.90;5.00;;;13.90;99.90;;;;;;5033151;28;20061;-42
2023/05/04 07:57:26;;;;;;;7.57;5.15;;;13.90;99.90;;;;;;5032725;28;20029;-41
2023/05/04 07:59:55;;;;;;;7.05;4.32;;;13.90;99.90;;;;;;5032870;28;20593;-42
2023/05/04 08:02:20;;;;;;;6.63;3.90;;;13.90;99.90;;;;;;5033043;28;20029;-41
2023/05/04 08:04:46;;;;;;;6.43;4.18;;;13.90;99.90;;;;;;5033231;28;20114;-40
2023/05/04 08:07:14;;;;;;;7.78;4.32;;;13.90;99.90;;;;;;5032481;28;20078;-42
2023/05/04 08:09:40;;;;;;;6.60;4.38;;;13.90;99.90;;;;;;5033019;28;20060;-41
2023/05/04 08:12:06;;;;;;;5.15;4.22;;;13.90;99.90;;;;;;5033032;28;20133;-42
2023/05/04 08:14:32;;;;;;;5.80;4.10;;;14.00;99.90;;;;;;5033336;28;20413;-41
2023/05/04 08:16:59;;;;;;;4.90;3.65;;;14.00;99.90;;;;;;5032294;28;20408;-42
2023/05/04 08:19:25;;;;;;;4.40;3.58;;;14.00;99.90;;;;;;5032850;28;20025;-42
2023/05/04 08:21:50;;;;;;;5.53;3.85;;;14.00;99.90;;;;;;5032970;28;20040;-41
2023/05/04 08:24:17;;;;;;;4.70;3.38;;;14.00;99.90;;;;;;5032666;28;20032;-41
2023/05/04 08:26:43;;;;;;;4.38;3.30;;;14.00;99.90;;;;;;5032103;28;20106;-41
2023/05/04 08:29:09;;;;;;;5.60;3.85;;;14.00;99.90;;;;;;5032635;28;20164;-41
2023/05/04 08:31:35;;;;;;;5.35;3.65;;;14.10;99.90;;;;;;5032606;28;20490;-41
2023/05/04 08:34:02;;;;;;;8.18;4.40;;;14.10;99.90;;;;;;5032189;28;20040;-40
2023/05/04 08:36:28;;;;;;;6.05;4.88;;;14.20;99.90;;;;;;5031870;28;20036;-41
2023/05/04 08:38:54;;;;;;;6.80;4.18;;;14.40;99.90;;;;;;5032471;28;20017;-40
2023/05/04 08:41:22;;;;;;;5.85;4.03;;;14.60;99.90;;;;;;5032371;28;20359;-44
2023/05/04 08:43:48;;;;;;;9.73;3.65;;;14.50;99.90;;;;;;5032283;28;20498;-42
2023/05/04 08:46:15;;;;;;;5.45;3.83;;;14.40;99.90;;;;;;5032059;28;20084;-40
2023/05/04 08:48:43;;;;;;;5.43;3.35;;;14.40;99.90;;;;;;5032494;28;20430;-45
2023/05/04 08:51:09;;;;;;;5.30;3.35;;;14.30;99.90;;;;;;5032244;28;20391;-46
2023/05/04 08:53:37;;;;;;;6.75;3.30;;;14.30;99.90;;;;;;5032084;28;20026;-41
2023/05/04 08:56:08;;;;;;;5.20;2.90;;;14.30;99.90;;;;;;5031644;28;20495;-41
2023/05/04 08:58:36;;;;;;;4.13;2.97;;;14.30;99.90;;;;;;5032083;28;20471;-41
2023/05/04 09:01:05;;;;;;;4.95;2.90;;;14.30;99.90;;;;;;5032329;28;20039;-40
2023/05/04 09:03:32;;;;;;;5.68;3.20;;;14.30;99.90;;;;;;5031969;28;20068;-41
2023/05/04 09:05:59;;;;;;;6.13;3.03;;;14.30;99.90;;;;;;5031579;28;20026;-43
2023/05/04 09:08:26;;;;;;;4.90;2.72;;;14.30;99.90;;;;;;5031898;28;20017;-41
2023/05/04 09:10:51;;;;;;;4.50;3.03;;;14.30;99.90;;;;;;5031255;28;20378;-41
2023/05/04 09:13:17;;;;;;;4.63;2.60;;;14.30;99.90;;;;;;5031777;28;20067;-42
2023/05/04 09:15:56;;;;;;;4.63;2.95;;;14.30;99.90;;;;;;5031997;28;20025;-40
2023/05/04 09:18:24;;;;;;;3.58;2.30;;;14.40;99.90;;;;;;5031703;28;20040;-41
2023/05/04 09:20:50;;;;;;;6.45;2.50;;;14.40;99.90;;;;;;5031632;28;20394;-41
2023/05/04 09:23:16;;;;;;;4.13;2.42;;;14.40;99.90;;;;;;5031554;28;20034;-40
2023/05/04 09:25:55;;;;;;;6.57;2.53;;;14.40;99.90;;;;;;5031232;28;20032;-41
2023/05/04 09:28:33;;;;;;;3.53;2.50;;;14.50;99.90;;;;;;5031756;28;20377;-41
2023/05/04 09:31:00;;;;;;;3.58;2.50;;;14.50;99.90;;;;;;5031707;28;20025;-41
2023/05/04 09:33:26;;;;;;;3.70;2.55;;;14.50;99.90;;;;;;5031518;28;20029;-41
2023/05/04 09:35:52;;;;;;;4.50;2.47;;;14.60;99.90;;;;;;5031045;28;20029;-42
2023/05/04 09:38:28;;;;;;;6.72;2.90;;;14.60;99.90;;;;;;5031313;28;20104;-41
2023/05/04 09:40:54;;;;;;;3.78;2.35;;;14.60;99.90;;;;;;5031700;28;20359;-39
2023/05/04 09:43:20;;;;;;;2.70;2.00;;;14.70;99.90;;;;;;5031330;28;20035;-40
2023/05/04 09:45:47;;;;;;;3.72;2.53;;;14.70;99.90;;;;;;5031011;28;20129;-44
2023/05/04 09:48:28;;;;;;;3.17;2.20;;;14.70;99.90;;;;;;5031239;28;20025;-39
2023/05/04 09:51:05;;;;;;;3.55;2.40;;;14.80;99.90;;;;;;5031294;28;20013;-41
2023/05/04 09:53:31;;;;;;;3.55;2.40;;;14.90;99.90;;;;;;5031370;28;20462;-40
2023/05/04 09:56:38;;;;;;;3.05;2.25;;;14.90;99.90;;;;;;5030790;28;20498;-43
2023/05/04 09:59:04;;;;;;;2.90;2.30;;;14.90;99.90;;;;;;4931490;29;20034;-41
2023/05/04 10:01:30;;;;;;;2.75;2.15;;;15.00;99.90;;;;;;5014802;28;20099;-41
2023/05/04 10:03:57;;;;;;;3.13;2.25;;;15.00;99.90;;;;;;5031013;28;20025;-41
2023/05/04 10:06:23;;;;;;;2.70;2.03;;;15.10;99.90;;;;;;5030473;28;20069;-41
2023/05/04 10:08:50;;;;;;;5.78;2.30;;;15.00;99.90;;;;;;5031037;28;20359;-41
2023/05/04 10:11:18;;;;;;;4.32;2.15;;;15.10;99.90;;;;;;5030932;28;20508;-41
2023/05/04 10:13:48;;;;;;;3.33;2.20;;;15.10;99.90;;;;;;5030901;28;20497;-41
2023/05/04 10:16:51;;;;;;;5.90;1.90;;;15.20;99.90;;;;;;5030486;28;20053;-44
2023/05/04 10:19:19;;;;;;;3.45;2.20;;;15.20;99.90;;;;;;5030887;28;20399;-41
2023/05/04 10:22:22;;;;;;;3.15;2.20;;;15.20;99.90;;;;;;5031488;28;20394;-41
2023/05/04 10:25:18;;;;;;;2.78;2.20;;;15.20;99.90;;;;;;5035082;28;20053;-40
2023/05/04 10:28:02;;;;;;;4.07;2.20;;;15.20;99.90;;;;;;5034616;28;20503;-41
2023/05/04 10:30:28;;;;;;;2.88;2.28;;;15.20;99.90;;;;;;5035176;28;20026;-41
2023/05/04 10:32:56;;;;;;;3.28;2.40;;;15.30;99.90;;;;;;5034755;28;20581;-40
2023/05/04 10:35:22;;;;;;;2.90;2.13;;;15.30;99.90;;;;;;5034866;28;20120;-41
2023/05/04 10:37:53;;;;;;;2.85;2.10;;;15.30;99.90;;;;;;5034282;28;20042;-41
2023/05/04 10:40:33;;;;;;;3.60;2.35;;;15.30;99.90;;;;;;5034813;28;20560;-42
2023/05/04 10:42:58;;;;;;;2.60;2.05;;;15.30;99.90;;;;;;5034722;28;20108;-39
2023/05/04 10:45:37;;;;;;;3.47;2.03;;;15.30;99.90;;;;;;5034548;28;20109;-41
2023/05/04 10:48:03;;;;;;;3.78;2.30;;;15.30;99.90;;;;;;5034295;28;20060;-41
2023/05/04 10:50:43;;;;;;;2.83;2.00;;;15.30;99.90;;;;;;5034655;28;20475;-41
2023/05/04 10:53:10;;;;;;;3.60;2.42;;;15.30;99.90;;;;;;5034450;28;20057;-41
2023/05/04 10:55:41;;;;;;;2.72;2.10;;;15.30;99.90;;;;;;5034344;28;20025;-41
2023/05/04 10:58:08;;;;;;;4.45;1.95;;;15.40;99.90;;;;;;5034169;28;20100;-42
2023/05/04 11:00:41;;;;;;;2.97;1.90;;;15.30;99.90;;;;;;5034387;28;20026;-41
2023/05/04 11:03:07;;;;;;;3.05;1.90;;;15.40;99.90;;;;;;5034282;28;20021;-43
2023/05/04 11:05:43;;;;;;;6.50;2.28;;;15.40;99.90;;;;;;5033927;28;20034;-39
2023/05/04 11:08:18;;;;;;;4.53;2.90;;;15.30;99.90;;;;;;5034126;28;20026;-41
2023/05/04 11:10:58;;;;;;;6.10;2.40;;;15.30;99.90;;;;;;5034163;28;20359;-42
2023/05/04 11:13:24;;;;;;;4.72;2.25;;;15.40;99.90;;;;;;5034066;28;20536;-41
2023/05/04 11:15:53;;;;;;;4.00;1.88;;;15.40;99.90;;;;;;5033614;28;20041;-40
2023/05/04 11:18:36;;;;;;;2.80;2.28;;;15.50;99.90;;;;;;5034029;28;20030;-41
2023/05/04 11:21:02;;;;;;;3.38;2.10;;;15.50;99.90;;;;;;5034067;28;20017;-41
2023/05/04 11:23:28;;;;;;;3.15;2.20;;;15.50;99.90;;;;;;5033862;28;20040;-42
2023/05/04 11:25:55;;;;;;;3.10;2.03;;;15.50;99.90;;;;;;5033408;28;20036;-40
2023/05/04 11:28:37;;;;;;;3.25;2.03;;;15.50;99.90;;;;;;5033715;28;20021;-41
2023/05/04 11:31:16;;;;;;;5.43;2.30;;;15.60;99.90;;;;;;5033844;28;20028;-41
2023/05/04 11:33:53;;;;;;;3.22;2.10;;;15.60;99.90;;;;;;5032833;28;20094;-41
2023/05/04 11:36:20;;;;;;;5.18;2.20;;;15.60;99.90;;;;;;5033156;28;20052;-39
2023/05/04 11:38:46;;;;;;;4.20;2.13;;;15.60;99.90;;;;;;5033626;28;20053;-41
2023/05/04 11:41:12;;;;;;;4.13;2.10;;;15.60;99.90;;;;;;5015770;28;20026;-43
2023/05/04 11:43:41;;;;;;;2.30;1.90;;;15.60;99.90;;;;;;5033488;28;20029;-42
2023/05/04 11:46:07;;;;;;;2.72;1.88;;;15.60;99.90;;;;;;5033178;28;20024;-41
2023/05/04 11:48:35;;;;;;;2.08;1.83;;;15.60;99.90;;;;;;5033518;28;20383;-42
2023/05/04 11:51:02;;;;;;;3.40;1.98;;;15.60;99.90;;;;;;5033349;28;20029;-40
2023/05/04 11:53:38;;;;;;;2.88;2.15;;;15.60;99.90;;;;;;5033178;28;20022;-42
2023/05/04 11:56:05;;;;;;;2.20;1.70;;;15.60;99.90;;;;;;5032899;28;20029;-41
2023/05/04 11:58:31;;;;;;;3.58;2.15;;;15.60;99.90;;;;;;5015507;28;20029;-40
2023/05/04 12:00:57;;;;;;;3.72;2.00;;;15.60;99.90;;;;;;5033366;28;20227;-40
2023/05/04 12:03:28;;;;;;;2.88;1.90;;;15.60;99.90;;;;;;5033117;28;20481;-40
2023/05/04 12:05:58;;;;;;;3.20;2.00;;;15.60;99.90;;;;;;5032558;28;20593;-42
2023/05/04 12:08:33;;;;;;;3.72;1.88;;;15.60;99.90;;;;;;5033017;28;20033;-42
2023/05/04 12:11:20;;;;;;;2.10;1.58;;;15.60;99.90;;;;;;5033131;28;20189;-40
2023/05/04 12:13:47;;;;;;;1.88;1.63;;;15.60;99.90;;;;;;5033048;28;20152;-41
2023/05/04 12:16:13;;;;;;;3.95;1.95;;;15.60;99.90;;;;;;5032444;28;20032;-42
2023/05/04 12:18:40;;;;;;;2.78;1.60;;;15.70;99.90;;;;;;5032952;28;20030;-41
2023/05/04 12:21:13;;;;;;;2.20;1.80;;;15.70;99.90;;;;;;5033134;28;20118;-41
2023/05/04 12:23:40;;;;;;;1.88;1.60;;;15.70;99.90;;;;;;5032825;28;20137;-41
2023/05/04 12:26:07;;;;;;;2.40;1.90;;;15.70;99.90;;;;;;5032223;28;20120;-41
2023/05/04 12:28:34;;;;;;;1.92;1.70;;;15.70;99.90;;;;;;5015001;28;20107;-41
2023/05/04 12:31:00;;;;;;;3.88;1.80;;;15.70;99.90;;;;;;5032543;28;20018;-41
2023/05/04 12:33:26;;;;;;;2.33;1.60;;;15.70;99.90;;;;;;5032467;28;20030;-42
2023/05/04 12:35:52;;;;;;;3.80;2.10;;;15.70;99.90;;;;;;5032198;28;20398;-41
2023/05/04 12:38:17;;;;;;;2.75;2.13;;;15.70;99.90;;;;;;5032396;28;20025;-41
2023/05/04 12:40:43;;;;;;;2.38;1.92;;;15.70;99.90;;;;;;5032508;28;20035;-41
2023/05/04 12:43:09;;;;;;;2.20;1.40;;;15.70;99.90;;;;;;5032371;28;20036;-41
2023/05/04 12:45:35;;;;;;;3.50;1.60;;;15.70;99.90;;;;;;5031591;28;20025;-40
2023/05/04 12:48:02;;;;;;;2.72;1.77;;;15.70;99.90;;;;;;5032081;28;20045;-42